Aérodrome :
LOGIN :

S'inscrire | Disclaimer

   EN    FR    IT 

 










Légende :    VFR   VFR Marginal   IFR   IFR Intensif   IFR Très Intensif
Visi : 
Plafond : 
>= 8 km
>= 3000ft
5 à 8 km
1000 à 3000 ft
1500m à 5 km
500 à 1000 ft
800 à 1500m
200 à 500 ft
< 800m
< 200 ft
Symboles :   Orages  Brouillard  Fortes neiges  Fortes précipitations  Vent > 20 kt
SIGMETs :   Divers  Orages  Givrage  Turbulence  Onde Orograph.  Cendres Volcan.







- Altitude de l'aérodrome : 171 ft
- Code IATA : EGC
- Voir les cartes d'approche


LFBE - Bergerac

DERNIER METAR :
  • 231000Z AUTO 18005KT 150V210 9999 -RA FEW009 BKN021 BKN028 07/06 Q1010 TEMPO 4000 -SHRA BKN005 BKN025TCU

METARs EXPIRÉS :
  • 230930Z AUTO 20004KT 9999 -RA FEW010 SCT016 BKN027 06/05 Q1010 NOSIG
  • 230900Z AUTO 18003KT 140V200 9999 RA FEW008 OVC035 06/05 Q1010 BECMG NSW
  • 230830Z AUTO VRB02KT 9999 -RA FEW010 BKN032 BKN040 06/05 Q1009 NOSIG
  • 230800Z AUTO VRB01KT 9999 -RA FEW019 OVC028 06/05 Q1009 TEMPO 4000 -SHRA BKN005 BKN025TCU
  • 230730Z AUTO 18001KT 9999 BKN025 OVC030 06/05 Q1009 TEMPO 4000 -SHRA BKN005 BKN025TCU

TAF AMD TAF LFBE
Valide du 23 à 09h jusqu'au 24 à 06h UTC


230921Z 2309/2406 27004KT 9999 SCT008 BKN030
TEMPO 2309/2316 4000 -SHRA BKN005 BKN025TCU
BECMG 2316/2318 CAVOK
PROB40
TEMPO 2400/2406 3000 MIFG
Pas de NOTAMs connus pour ce terrain.



MET'MAP, la Météo Aéronautique d'un coup d'oeil ! - Copyright ORBIFLY Décembre 2007 - Disclaimer

ORBIFLY MET'MAP TEAM :

Programmation & Développement : Alexandra Zaïnal
Conception & Développement : Baudouin d'Aumeries
Co-Programmation & Développement : Marc-Olivier Méhu
Soutien technique & logistique : Manuel Goepfert

Contact : metmap@orbifly.com




SOURCES & CREDITS :

   NOAA